Airfield :
LOGIN :

Register | Disclaimer

   EN    FR    IT 

 










Legend :    VFR   Marginal VFR   IFR   Intensive IFR   Very Intensive IFR
Visi :
Ceiling :
>= 8 km
>= 3000ft
5 to 8 km
1000 to 3000 ft
1500m to 5 km
500 to 1000 ft
800 to 1500m
200 to 500 ft
< 800m
< 200 ft
Symbols :   Thunderstorms  Fog  Heavy snow  Heavy precipitations  Wind > 20 kt
SIGMETs :     Misc.  Thunderstorms  Icing  Turbulence  Mountain Waves  Volcanic Ashes






- Airport Elevation : 876 ft
- IATA code : MBX


LJMB - Maribor

CURRENT METAR :
  • 030130Z AUTO 28001KT 9999 NCD M01/M02 Q1032

EXPIRED METARs :
  • 030100Z AUTO 32002KT 9000 NCD M01/M02 Q1033
  • 030030Z AUTO 30001KT 9999 NCD M00/M02 Q1033
  • 030000Z AUTO VRB01KT 9999 NCD M01/M02 Q1033
  • 022330Z AUTO 30001KT 9999 NCD M00/M02 Q1033
  • 022300Z AUTO 31002KT 9999 NCD M00/M02 Q1033

TAF TAF LJMB
Valid from the 03 at 00:00 until the 04 at 00:00 UTC


022300Z 0300/0324 VRB02KT CAVOK



MET'MAP, your aeronautical weather chart ! - Copyright ORBIFLY December 2007 - Disclaimer

ORBIFLY MET'MAP TEAM :

Programming & Development : Alexandra Zaïnal
Concept & original design : Baudouin d'Aumeries
Assistance for programming : Marc-Olivier Méhu
Technical & hardware support : Manuel Goepfert

Contact : metmap@orbifly.com




SOURCES & CREDITS :

   NOAA